N410VE LKPR-LZKZ
Flight info
| Callsign | N410VE |
|---|---|
| Flight time | N/A |
| Altitude | 13000 |
| Route | VOZ5N/30 VOZ BITSI ODNEM M748 NITRA N190 TAKOS |
| Aircraft | C208/L-V/N |
Departure
| Time | N/A |
|---|---|
| Airport | Václav Havel Airport Prague (LKPR) |
Arrival
| Time | 2026-04-22 19:15 |
|---|---|
| Airport | Košice International Airport (LZKZ) |
| Time | Latitude | Longitude | Altitude | Speed | Heading |
|---|---|---|---|---|---|
| 2026-04-22 18:54 | 48.61045 | 20.07959 | 12422 ft | 204 kts | 98° |
| 2026-04-22 18:55 | 48.60731 | 20.10049 | 12157 ft | 202 kts | 98° |
| 2026-04-22 18:55 | 48.60425 | 20.12109 | 11897 ft | 200 kts | 99° |
| 2026-04-22 18:55 | 48.60120 | 20.14131 | 11640 ft | 200 kts | 99° |
| 2026-04-22 18:55 | 48.59812 | 20.16176 | 11383 ft | 200 kts | 99° |
| 2026-04-22 18:56 | 48.59503 | 20.18221 | 11127 ft | 200 kts | 99° |
| 2026-04-22 18:56 | 48.59194 | 20.20272 | 10874 ft | 200 kts | 100° |
| 2026-04-22 18:56 | 48.58884 | 20.22313 | 10698 ft | 197 kts | 100° |
| 2026-04-22 18:56 | 48.58580 | 20.24313 | 10569 ft | 193 kts | 100° |
| 2026-04-22 18:57 | 48.58280 | 20.26282 | 10435 ft | 191 kts | 100° |
| 2026-04-22 18:57 | 48.58065 | 20.28249 | 10307 ft | 189 kts | 95° |
| 2026-04-22 18:57 | 48.57872 | 20.30218 | 10181 ft | 189 kts | 96° |
| 2026-04-22 18:57 | 48.57672 | 20.32189 | 10060 ft | 190 kts | 96° |
| 2026-04-22 18:58 | 48.57469 | 20.34172 | 9962 ft | 191 kts | 96° |
| 2026-04-22 18:58 | 48.57269 | 20.36133 | 9954 ft | 187 kts | 95° |
| 2026-04-22 18:58 | 48.57077 | 20.38056 | 9950 ft | 184 kts | 95° |
| 2026-04-22 18:58 | 48.56886 | 20.39954 | 9946 ft | 182 kts | 95° |
| 2026-04-22 18:59 | 48.56760 | 20.41204 | 9944 ft | 181 kts | 96° |
| 2026-04-22 18:59 | 48.56570 | 20.43079 | 9943 ft | 180 kts | 96° |
| 2026-04-22 18:59 | 48.56380 | 20.44920 | 9954 ft | 177 kts | 95° |
| 2026-04-22 18:59 | 48.56199 | 20.46761 | 9955 ft | 178 kts | 95° |
| 2026-04-22 19:00 | 48.56009 | 20.48618 | 9950 ft | 179 kts | 96° |
| 2026-04-22 19:00 | 48.55819 | 20.50472 | 9951 ft | 179 kts | 96° |
| 2026-04-22 19:00 | 48.55629 | 20.52327 | 9943 ft | 179 kts | 95° |
| 2026-04-22 19:00 | 48.55438 | 20.54173 | 9944 ft | 178 kts | 95° |
| 2026-04-22 19:01 | 48.55246 | 20.56019 | 9945 ft | 178 kts | 95° |
| 2026-04-22 19:01 | 48.55061 | 20.57869 | 9944 ft | 178 kts | 95° |
| 2026-04-22 19:01 | 48.54871 | 20.59723 | 9945 ft | 180 kts | 96° |
| 2026-04-22 19:01 | 48.54679 | 20.61589 | 9930 ft | 180 kts | 96° |
| 2026-04-22 19:02 | 48.54486 | 20.63473 | 9758 ft | 185 kts | 94° |
| 2026-04-22 19:02 | 48.54292 | 20.65400 | 9491 ft | 187 kts | 95° |
| 2026-04-22 19:02 | 48.54092 | 20.67334 | 9221 ft | 186 kts | 94° |
| 2026-04-22 19:02 | 48.53894 | 20.69261 | 8953 ft | 186 kts | 94° |
| 2026-04-22 19:03 | 48.53696 | 20.71171 | 8688 ft | 186 kts | 95° |
| 2026-04-22 19:03 | 48.53495 | 20.73094 | 8422 ft | 186 kts | 94° |
| 2026-04-22 19:03 | 48.53295 | 20.75019 | 8168 ft | 185 kts | 94° |
| 2026-04-22 19:03 | 48.53095 | 20.76937 | 7919 ft | 185 kts | 95° |
| 2026-04-22 19:04 | 48.52895 | 20.78852 | 7657 ft | 185 kts | 95° |
| 2026-04-22 19:04 | 48.52694 | 20.80766 | 7402 ft | 185 kts | 94° |
| 2026-04-22 19:04 | 48.52493 | 20.82679 | 7147 ft | 184 kts | 94° |
| 2026-04-22 19:04 | 48.52294 | 20.84584 | 6897 ft | 184 kts | 94° |
| 2026-04-22 19:05 | 48.52094 | 20.86484 | 6640 ft | 183 kts | 94° |
| 2026-04-22 19:05 | 48.51895 | 20.88386 | 6382 ft | 183 kts | 94° |
| 2026-04-22 19:05 | 48.51694 | 20.90276 | 6121 ft | 183 kts | 94° |
| 2026-04-22 19:05 | 48.51493 | 20.92168 | 5861 ft | 182 kts | 94° |
| 2026-04-22 19:06 | 48.51296 | 20.94051 | 5605 ft | 182 kts | 94° |
| 2026-04-22 19:06 | 48.51097 | 20.95926 | 5346 ft | 180 kts | 93° |
| 2026-04-22 19:06 | 48.50898 | 20.97794 | 5089 ft | 180 kts | 93° |
| 2026-04-22 19:07 | 48.50513 | 21.01441 | 4563 ft | 175 kts | 93° |
| 2026-04-22 19:07 | 48.50303 | 21.03242 | 4301 ft | 174 kts | 94° |
| 2026-04-22 19:07 | 48.50083 | 21.05048 | 4041 ft | 175 kts | 94° |
| 2026-04-22 19:07 | 48.49870 | 21.06826 | 3876 ft | 170 kts | 94° |
| 2026-04-22 19:08 | 48.49665 | 21.08537 | 3745 ft | 167 kts | 94° |
| 2026-04-22 19:08 | 48.49457 | 21.10258 | 3615 ft | 163 kts | 94° |
| 2026-04-22 19:08 | 48.49249 | 21.11916 | 3484 ft | 159 kts | 94° |
| 2026-04-22 19:08 | 48.49049 | 21.13508 | 3446 ft | 152 kts | 94° |
| 2026-04-22 19:09 | 48.48855 | 21.15037 | 3424 ft | 146 kts | 94° |
| 2026-04-22 19:09 | 48.48659 | 21.16516 | 3432 ft | 143 kts | 94° |
| 2026-04-22 19:09 | 48.48541 | 21.17982 | 3422 ft | 137 kts | 73° |
| 2026-04-22 19:09 | 48.49030 | 21.19035 | 3428 ft | 121 kts | 21° |
| 2026-04-22 19:10 | 48.49820 | 21.18949 | 3426 ft | 121 kts | 330° |
| 2026-04-22 19:10 | 48.50350 | 21.17934 | 3430 ft | 122 kts | 322° |
| 2026-04-22 19:10 | 48.51110 | 21.17678 | 3442 ft | 117 kts | 13° |
| 2026-04-22 19:10 | 48.51825 | 21.18303 | 3459 ft | 120 kts | 30° |
| 2026-04-22 19:11 | 48.52550 | 21.19022 | 3321 ft | 130 kts | 29° |
| 2026-04-22 19:11 | 48.53402 | 21.19518 | 3144 ft | 135 kts | 14° |
| 2026-04-22 19:11 | 48.54321 | 21.19912 | 2955 ft | 138 kts | 13° |
| 2026-04-22 19:11 | 48.55260 | 21.20280 | 2764 ft | 140 kts | 12° |
| 2026-04-22 19:12 | 48.56207 | 21.20614 | 2582 ft | 137 kts | 11° |
| 2026-04-22 19:12 | 48.57115 | 21.20926 | 2393 ft | 131 kts | 11° |
| 2026-04-22 19:12 | 48.57990 | 21.21225 | 2214 ft | 127 kts | 11° |
| 2026-04-22 19:12 | 48.58813 | 21.21506 | 2052 ft | 113 kts | 11° |
| 2026-04-22 19:13 | 48.59554 | 21.21770 | 1887 ft | 107 kts | 12° |
| 2026-04-22 19:13 | 48.60255 | 21.22018 | 1735 ft | 102 kts | 10° |
| 2026-04-22 19:13 | 48.60936 | 21.22244 | 1608 ft | 99 kts | 11° |
| 2026-04-22 19:13 | 48.61619 | 21.22469 | 1456 ft | 99 kts | 12° |
| 2026-04-22 19:14 | 48.62228 | 21.22688 | 1319 ft | 86 kts | 12° |
| 2026-04-22 19:14 | 48.62803 | 21.22895 | 1178 ft | 83 kts | 12° |
| 2026-04-22 19:14 | 48.63362 | 21.23089 | 1079 ft | 82 kts | 13° |
| 2026-04-22 19:14 | 48.63902 | 21.23281 | 998 ft | 79 kts | 11° |
| 2026-04-22 19:15 | 48.64257 | 21.23409 | 921 ft | 79 kts | 11° |
| 2026-04-22 19:15 | 48.64956 | 21.23645 | 803 ft | 76 kts | 11° |
| 2026-04-22 19:15 | 48.65452 | 21.23820 | 767 ft | 69 kts | 9° |
| 2026-04-22 19:15 | 48.65851 | 21.23952 | 756 ft | 44 kts | 14° |
| 2026-04-22 19:16 | 48.66088 | 21.24041 | 753 ft | 31 kts | 12° |